Time;durP1;ratioP1;P1;durP2;ratioP2;P2;SDS_P1;SDS_P2;PMS_P1;PMS_P2;Temp;Humidity;BMP_temperature;BMP_pressure;BME280_temperature;BME280_humidity;BME280_pressure;Samples;Min_cycle;Max_cycle;Signal;HPM_P1;HPM_P2
2022/05/20 00:00:24;;;;;;;1.07;1.07;;;;;;;;;;5091024;28;20783;-76
2022/05/20 00:02:51;;;;;;;0.70;0.70;;;;;;;;;;5090944;28;20462;-75
2022/05/20 00:05:18;;;;;;;0.63;0.60;;;;;;;;;;5072430;28;20438;-75
2022/05/20 00:07:45;;;;;;;0.60;0.60;;;;;;;;;;5080901;28;20463;-76
2022/05/20 00:10:15;;;;;;;0.70;0.70;;;;;;;;;;5100251;28;20440;-75
2022/05/20 00:12:42;;;;;;;0.70;0.70;;;;;;;;;;5083020;28;20425;-75
2022/05/20 00:15:12;;;;;;;1.50;1.40;;;;;;;;;;5086456;28;20511;-76
2022/05/20 00:17:39;;;;;;;0.80;0.80;;;;;;;;;;5087429;28;20800;-76
2022/05/20 00:20:07;;;;;;;0.70;0.70;;;;;;;;;;5098253;28;20499;-75
2022/05/20 00:22:34;;;;;;;0.70;0.60;;;;;;;;;;5083834;28;20562;-75
2022/05/20 00:27:46;;;;;;;2.40;0.90;;;;;;;;;;5089612;28;20807;-76
2022/05/20 00:30:14;;;;;;;2.33;2.20;;;;;;;;;;5101846;28;20441;-76
2022/05/20 00:32:43;;;;;;;0.70;0.60;;;;;;;;;;5098518;28;20899;-75
2022/05/20 00:35:11;;;;;;;0.80;0.80;;;;;;;;;;5101728;28;20454;-76
2022/05/20 00:37:40;;;;;;;0.60;0.60;;;;;;;;;;5080712;28;20463;-75
2022/05/20 00:40:08;;;;;;;0.70;0.70;;;;;;;;;;5099898;28;20445;-75
2022/05/20 00:42:35;;;;;;;1.10;1.10;;;;;;;;;;5091766;28;20459;-75
2022/05/20 00:45:02;;;;;;;0.80;0.80;;;;;;;;;;5101741;28;20465;-75
2022/05/20 00:47:30;;;;;;;0.70;0.70;;;;;;;;;;5105059;28;20446;-75
2022/05/20 00:50:00;;;;;;;0.93;0.93;;;;;;;;;;5102949;28;20456;-75
2022/05/20 00:52:31;;;;;;;0.80;0.60;;;;;;;;;;5086383;28;20495;-75
2022/05/20 00:55:01;;;;;;;0.70;0.70;;;;;;;;;;5085412;28;20930;-75
2022/05/20 00:57:30;;;;;;;0.70;0.60;;;;;;;;;;5081807;28;20855;-75
2022/05/20 01:00:20;;;;;;;0.70;0.60;;;;;;;;;;5079708;28;20568;-74
2022/05/20 01:02:52;;;;;;;0.70;0.70;;;;;;;;;;5095645;28;20518;-75
2022/05/20 01:05:23;;;;;;;0.70;0.63;;;;;;;;;;5096029;28;20407;-74
2022/05/20 01:07:52;;;;;;;0.70;0.60;;;;;;;;;;5095668;28;20463;-74
2022/05/20 01:10:20;;;;;;;0.70;0.60;;;;;;;;;;5073620;28;20443;-74
2022/05/20 01:12:50;;;;;;;0.70;0.70;;;;;;;;;;5074643;28;20422;-73
2022/05/20 01:15:18;;;;;;;0.70;0.70;;;;;;;;;;5073742;28;20443;-74
2022/05/20 01:17:49;;;;;;;0.70;0.60;;;;;;;;;;5072451;28;20438;-74
2022/05/20 01:20:25;;;;;;;0.70;0.60;;;;;;;;;;5073062;28;20429;-74
2022/05/20 01:23:05;;;;;;;0.80;0.80;;;;;;;;;;5072308;28;20466;-73
2022/05/20 01:25:34;;;;;;;0.80;0.80;;;;;;;;;;5071831;28;20429;-74
2022/05/20 01:28:02;;;;;;;0.70;0.70;;;;;;;;;;5072190;28;20409;-74
2022/05/20 01:30:31;;;;;;;0.70;0.70;;;;;;;;;;5072097;28;20472;-74
2022/05/20 01:33:06;;;;;;;0.70;0.70;;;;;;;;;;5056255;28;20441;-74
2022/05/20 01:35:37;;;;;;;0.70;0.70;;;;;;;;;;5071919;28;20489;-74
2022/05/20 01:38:07;;;;;;;0.70;0.60;;;;;;;;;;5054864;28;20994;-74
2022/05/20 01:40:42;;;;;;;1.10;1.00;;;;;;;;;;5073238;28;20427;-73
2022/05/20 01:43:14;;;;;;;0.60;0.60;;;;;;;;;;5071880;28;20520;-73
2022/05/20 01:45:46;;;;;;;1.33;0.97;;;;;;;;;;5079051;28;20771;-74
2022/05/20 01:48:20;;;;;;;0.73;0.73;;;;;;;;;;5081479;28;20454;-72
2022/05/20 01:50:53;;;;;;;0.70;0.60;;;;;;;;;;5097432;28;20453;-75
2022/05/20 01:53:28;;;;;;;0.70;0.70;;;;;;;;;;5098729;28;20401;-75
2022/05/20 01:55:59;;;;;;;1.93;1.83;;;;;;;;;;5083651;28;20435;-75
2022/05/20 01:58:28;;;;;;;0.70;0.70;;;;;;;;;;5077712;28;20437;-75
2022/05/20 02:00:58;;;;;;;0.70;0.70;;;;;;;;;;5076240;28;20532;-75
2022/05/20 02:03:29;;;;;;;0.70;0.70;;;;;;;;;;5081237;28;20497;-74
2022/05/20 02:05:58;;;;;;;0.70;0.70;;;;;;;;;;5098479;28;20477;-74
2022/05/20 02:08:30;;;;;;;0.70;0.70;;;;;;;;;;5089676;28;20531;-75
2022/05/20 02:11:01;;;;;;;0.90;0.80;;;;;;;;;;5098332;28;20980;-74
2022/05/20 02:13:30;;;;;;;0.70;0.70;;;;;;;;;;5078719;28;20471;-73
2022/05/20 02:16:01;;;;;;;0.90;0.90;;;;;;;;;;5081838;28;20898;-74
2022/05/20 02:18:30;;;;;;;0.70;0.70;;;;;;;;;;5091588;28;20895;-74
2022/05/20 02:20:59;;;;;;;0.70;0.70;;;;;;;;;;5077380;28;20550;-74
2022/05/20 02:23:31;;;;;;;0.70;0.70;;;;;;;;;;5077345;28;20952;-75
2022/05/20 02:26:01;;;;;;;1.20;0.90;;;;;;;;;;5075676;28;20413;-73
2022/05/20 02:28:31;;;;;;;0.70;0.70;;;;;;;;;;5077741;28;20477;-75
2022/05/20 02:30:59;;;;;;;0.70;0.70;;;;;;;;;;5078330;28;20454;-75
2022/05/20 02:33:26;;;;;;;0.80;0.80;;;;;;;;;;5075875;28;20442;-75
2022/05/20 02:36:00;;;;;;;0.70;0.60;;;;;;;;;;5081447;28;20535;-72
2022/05/20 02:38:28;;;;;;;0.70;0.70;;;;;;;;;;5080651;28;20459;-74
2022/05/20 02:40:55;;;;;;;0.70;0.70;;;;;;;;;;5077200;28;20967;-74
2022/05/20 02:43:23;;;;;;;0.70;0.70;;;;;;;;;;5077618;28;20466;-75
2022/05/20 02:45:50;;;;;;;0.70;0.70;;;;;;;;;;5078740;28;20513;-74
2022/05/20 02:48:18;;;;;;;0.80;0.80;;;;;;;;;;5081921;28;20833;-75
2022/05/20 02:50:45;;;;;;;1.77;1.67;;;;;;;;;;5085951;28;20440;-75
2022/05/20 02:53:12;;;;;;;2.70;0.90;;;;;;;;;;5078548;28;20447;-75
2022/05/20 02:55:40;;;;;;;0.70;0.70;;;;;;;;;;5078031;28;20454;-75
2022/05/20 02:58:07;;;;;;;1.00;0.83;;;;;;;;;;5071517;28;20471;-75
2022/05/20 03:06:06;;;;;;;0.70;0.60;;;;;;;;;;5100765;28;20458;-76
2022/05/20 03:08:33;;;;;;;1.63;1.53;;;;;;;;;;5087118;28;20784;-75
2022/05/20 03:11:01;;;;;;;0.87;0.87;;;;;;;;;;5078212;28;20423;-75
2022/05/20 03:13:28;;;;;;;0.73;0.70;;;;;;;;;;5076628;28;20421;-75
2022/05/20 03:15:55;;;;;;;0.70;0.60;;;;;;;;;;5079300;28;20817;-75
2022/05/20 03:18:21;;;;;;;0.70;0.60;;;;;;;;;;5080676;28;20520;-75
2022/05/20 03:20:49;;;;;;;1.00;0.80;;;;;;;;;;5096145;28;20464;-75
2022/05/20 03:23:16;;;;;;;0.80;0.80;;;;;;;;;;5098042;28;20572;-75
2022/05/20 03:25:43;;;;;;;1.47;1.37;;;;;;;;;;5084526;28;20441;-74
2022/05/20 03:28:12;;;;;;;0.67;0.60;;;;;;;;;;5077659;28;20925;-75
2022/05/20 03:30:40;;;;;;;1.13;1.03;;;;;;;;;;5074357;28;20429;-74
2022/05/20 03:33:06;;;;;;;0.80;0.80;;;;;;;;;;5075332;28;20412;-74
2022/05/20 03:35:33;;;;;;;0.87;0.87;;;;;;;;;;5093296;28;20539;-74
2022/05/20 03:37:59;;;;;;;0.90;0.90;;;;;;;;;;5095019;28;20444;-74
2022/05/20 03:40:29;;;;;;;0.70;0.70;;;;;;;;;;5093564;28;20807;-74
2022/05/20 03:42:57;;;;;;;0.70;0.70;;;;;;;;;;5095247;28;20459;-74
2022/05/20 03:45:25;;;;;;;1.37;1.27;;;;;;;;;;5076992;28;20985;-75
2022/05/20 03:47:52;;;;;;;1.67;1.00;;;;;;;;;;5093751;28;20536;-74
2022/05/20 03:50:19;;;;;;;0.70;0.60;;;;;;;;;;5095990;28;20441;-75
2022/05/20 03:52:47;;;;;;;0.70;0.60;;;;;;;;;;5079393;28;20473;-75
2022/05/20 03:55:14;;;;;;;0.70;0.70;;;;;;;;;;5075552;28;20429;-75
2022/05/20 03:57:41;;;;;;;0.70;0.60;;;;;;;;;;5075154;28;20436;-73
2022/05/20 04:00:08;;;;;;;0.70;0.60;;;;;;;;;;5075938;28;20522;-74
2022/05/20 04:02:38;;;;;;;0.93;0.87;;;;;;;;;;5089501;28;20440;-74
2022/05/20 04:05:06;;;;;;;1.20;1.10;;;;;;;;;;5101429;28;20427;-74
2022/05/20 04:07:33;;;;;;;0.70;0.70;;;;;;;;;;5096830;28;20456;-74
2022/05/20 04:10:01;;;;;;;0.77;0.77;;;;;;;;;;5101871;28;20467;-74
2022/05/20 04:12:30;;;;;;;0.70;0.67;;;;;;;;;;5089578;28;20432;-75
2022/05/20 04:14:57;;;;;;;1.60;1.37;;;;;;;;;;5077715;28;20433;-76
2022/05/20 04:17:24;;;;;;;0.80;0.80;;;;;;;;;;5074969;28;20589;-76
2022/05/20 04:19:52;;;;;;;2.20;1.10;;;;;;;;;;5072460;28;20441;-74
2022/05/20 04:22:24;;;;;;;0.70;0.70;;;;;;;;;;5094252;28;20467;-75
2022/05/20 04:24:51;;;;;;;0.70;0.60;;;;;;;;;;5096510;28;20541;-75
2022/05/20 04:27:18;;;;;;;0.70;0.70;;;;;;;;;;5093851;28;20534;-74
2022/05/20 04:29:45;;;;;;;0.70;0.60;;;;;;;;;;5082539;28;20517;-75
2022/05/20 04:32:12;;;;;;;0.70;0.67;;;;;;;;;;5077009;28;20945;-75
2022/05/20 04:34:38;;;;;;;0.90;0.90;;;;;;;;;;5073284;28;20994;-76
2022/05/20 04:37:07;;;;;;;0.70;0.60;;;;;;;;;;5089227;28;20550;-74
2022/05/20 04:39:34;;;;;;;0.90;0.90;;;;;;;;;;5074620;28;20628;-76
2022/05/20 04:47:32;;;;;;;0.73;0.73;;;;;;;;;;5093402;28;20451;-75
2022/05/20 04:50:00;;;;;;;0.70;0.70;;;;;;;;;;5094113;28;20468;-75
2022/05/20 04:52:29;;;;;;;1.43;1.33;;;;;;;;;;5096224;28;20450;-74
2022/05/20 04:54:55;;;;;;;0.70;0.60;;;;;;;;;;5095113;28;20911;-75
2022/05/20 04:57:25;;;;;;;1.20;1.10;;;;;;;;;;5095940;28;20907;-76
2022/05/20 04:59:53;;;;;;;0.70;0.60;;;;;;;;;;5093843;28;20441;-76
2022/05/20 05:02:20;;;;;;;0.70;0.70;;;;;;;;;;5095858;28;20453;-76
2022/05/20 05:04:47;;;;;;;1.03;1.00;;;;;;;;;;5093202;28;20458;-75
2022/05/20 05:07:15;;;;;;;0.73;0.73;;;;;;;;;;5093810;28;20489;-75
2022/05/20 05:09:44;;;;;;;0.70;0.70;;;;;;;;;;5092354;28;20445;-76
2022/05/20 05:12:12;;;;;;;0.70;0.70;;;;;;;;;;5093195;28;20460;-76
2022/05/20 05:14:41;;;;;;;0.70;0.60;;;;;;;;;;5094074;28;20435;-75
2022/05/20 05:17:10;;;;;;;0.73;0.73;;;;;;;;;;5092721;28;20456;-75
2022/05/20 05:19:37;;;;;;;0.90;0.90;;;;;;;;;;5092359;28;20547;-76
2022/05/20 05:22:05;;;;;;;1.00;0.93;;;;;;;;;;5096448;28;20872;-75
2022/05/20 05:24:32;;;;;;;0.90;0.90;;;;;;;;;;5097022;28;20459;-74
2022/05/20 05:27:00;;;;;;;0.90;0.90;;;;;;;;;;5096230;28;20434;-77
2022/05/20 05:29:27;;;;;;;0.70;0.60;;;;;;;;;;5097443;28;20436;-76
2022/05/20 05:31:54;;;;;;;0.93;0.93;;;;;;;;;;5096251;28;20545;-75
2022/05/20 05:34:21;;;;;;;0.80;0.80;;;;;;;;;;5097102;28;20436;-76
2022/05/20 05:36:48;;;;;;;1.90;1.23;;;;;;;;;;5097178;28;20446;-76
2022/05/20 05:39:15;;;;;;;0.70;0.63;;;;;;;;;;5098196;28;20546;-76
2022/05/20 05:41:42;;;;;;;0.70;0.67;;;;;;;;;;5096017;28;20432;-76
2022/05/20 05:44:11;;;;;;;0.70;0.60;;;;;;;;;;5079444;28;20546;-76
2022/05/20 05:46:38;;;;;;;0.70;0.70;;;;;;;;;;5080428;28;20447;-77
2022/05/20 05:49:07;;;;;;;0.70;0.70;;;;;;;;;;5115509;28;20440;-77
2022/05/20 05:51:34;;;;;;;0.70;0.63;;;;;;;;;;5115628;28;20447;-77
2022/05/20 05:54:01;;;;;;;0.70;0.60;;;;;;;;;;5114406;28;20445;-77
2022/05/20 05:56:28;;;;;;;1.73;1.10;;;;;;;;;;5112284;28;20794;-78
2022/05/20 05:58:55;;;;;;;0.80;0.70;;;;;;;;;;5113607;28;20437;-77
2022/05/20 06:01:23;;;;;;;0.80;0.80;;;;;;;;;;5109790;28;20423;-78
2022/05/20 06:03:50;;;;;;;1.00;0.90;;;;;;;;;;5109963;28;20457;-77
2022/05/20 06:06:17;;;;;;;0.73;0.70;;;;;;;;;;5110722;28;20437;-77
2022/05/20 06:08:44;;;;;;;0.70;0.70;;;;;;;;;;5109970;28;20433;-79
2022/05/20 06:11:12;;;;;;;1.30;1.23;;;;;;;;;;5109665;28;20423;-78
2022/05/20 06:13:39;;;;;;;1.47;1.37;;;;;;;;;;5108912;28;20437;-78
2022/05/20 06:16:06;;;;;;;1.07;1.00;;;;;;;;;;5107300;28;20447;-78
2022/05/20 06:18:41;;;;;;;1.30;1.20;;;;;;;;;;5104926;28;20553;-78
2022/05/20 06:21:08;;;;;;;4.23;1.43;;;;;;;;;;5104305;28;20460;-79
2022/05/20 06:23:34;;;;;;;0.73;0.73;;;;;;;;;;5098225;28;20532;-80
2022/05/20 06:26:02;;;;;;;3.70;1.27;;;;;;;;;;5098386;28;20465;-79
2022/05/20 06:28:44;;;;;;;0.70;0.70;;;;;;;;;;5081560;28;20517;-78
2022/05/20 06:31:11;;;;;;;1.07;0.97;;;;;;;;;;5083105;28;20431;-78
2022/05/20 06:33:39;;;;;;;0.73;0.70;;;;;;;;;;5081988;28;20438;-78
2022/05/20 06:41:38;;;;;;;0.70;0.60;;;;;;;;;;5088362;28;20414;-78
2022/05/20 06:44:05;;;;;;;1.00;0.90;;;;;;;;;;5097494;28;20466;-79
2022/05/20 06:46:33;;;;;;;1.43;0.90;;;;;;;;;;5067756;28;20431;-78
2022/05/20 06:49:00;;;;;;;1.00;0.90;;;;;;;;;;5092139;28;20469;-80
2022/05/20 06:51:33;;;;;;;1.73;1.63;;;;;;;;;;5103228;28;20548;-82
2022/05/20 06:54:01;;;;;;;0.80;0.80;;;;;;;;;;5104214;28;20418;-78
2022/05/20 06:56:28;;;;;;;1.63;1.53;;;;;;;;;;5104415;28;20430;-80
2022/05/20 06:58:57;;;;;;;1.93;1.77;;;;;;;;;;5103747;28;20429;-81
2022/05/20 07:01:23;;;;;;;0.80;0.80;;;;;;;;;;5086912;28;20433;-81
2022/05/20 07:03:51;;;;;;;0.70;0.70;;;;;;;;;;5102213;28;20463;-82
2022/05/20 07:06:18;;;;;;;0.80;0.77;;;;;;;;;;5102956;28;20438;-80
2022/05/20 07:08:48;;;;;;;1.30;0.90;;;;;;;;;;5103755;28;20430;-80
2022/05/20 07:11:15;;;;;;;1.40;1.20;;;;;;;;;;5100971;28;20430;-82
2022/05/20 07:13:43;;;;;;;1.93;0.90;;;;;;;;;;5101202;28;20489;-81
2022/05/20 07:16:16;;;;;;;1.17;1.07;;;;;;;;;;5101617;28;20405;-80
2022/05/20 07:18:43;;;;;;;1.20;1.10;;;;;;;;;;5104755;28;20442;-80
2022/05/20 07:21:10;;;;;;;0.90;0.90;;;;;;;;;;5101521;28;20474;-80
2022/05/20 07:23:37;;;;;;;0.80;0.80;;;;;;;;;;5100014;28;20495;-80
2022/05/20 07:26:06;;;;;;;0.70;0.70;;;;;;;;;;5095979;28;20541;-79
2022/05/20 07:28:33;;;;;;;0.70;0.60;;;;;;;;;;5098974;28;20430;-81
2022/05/20 07:31:01;;;;;;;0.90;0.77;;;;;;;;;;5097315;28;20476;-81
2022/05/20 07:33:28;;;;;;;1.27;1.17;;;;;;;;;;5080770;28;20484;-80
2022/05/20 07:35:57;;;;;;;2.10;1.10;;;;;;;;;;5097585;28;20446;-83
2022/05/20 07:38:26;;;;;;;0.77;0.70;;;;;;;;;;5093825;28;20430;-81
2022/05/20 07:40:57;;;;;;;0.87;0.80;;;;;;;;;;5097148;28;20454;-78
2022/05/20 07:43:26;;;;;;;0.80;0.80;;;;;;;;;;5096881;28;20527;-82
2022/05/20 07:45:53;;;;;;;4.50;1.57;;;;;;;;;;5079195;28;21001;-78
2022/05/20 07:48:20;;;;;;;1.10;1.03;;;;;;;;;;5094673;28;20830;-79
2022/05/20 07:50:50;;;;;;;2.50;2.30;;;;;;;;;;5079881;28;20508;-80
2022/05/20 07:53:20;;;;;;;3.47;1.63;;;;;;;;;;5093790;28;20435;-85
2022/05/20 07:55:49;;;;;;;0.70;0.70;;;;;;;;;;5094600;28;20397;-84
2022/05/20 07:58:17;;;;;;;1.03;0.97;;;;;;;;;;5093924;28;20436;-82
2022/05/20 08:00:46;;;;;;;1.67;1.07;;;;;;;;;;5092547;28;20421;-86
2022/05/20 08:04:52;;;;;;;1.03;0.90;;;;;;;;;;5076742;28;20446;-80
2022/05/20 08:06:04;;;;;;;1.77;1.33;;;;;;;;;;5092132;28;20482;-80
2022/05/20 08:08:34;;;;;;;1.00;0.90;;;;;;;;;;5092777;28;20873;-84
2022/05/20 08:11:00;;;;;;;1.83;0.90;;;;;;;;;;5093049;28;20426;-84
2022/05/20 08:13:27;;;;;;;0.73;0.70;;;;;;;;;;5075909;28;20473;-86
2022/05/20 08:15:56;;;;;;;0.83;0.83;;;;;;;;;;5093031;28;20397;-85
2022/05/20 08:18:23;;;;;;;0.70;0.60;;;;;;;;;;5092821;28;20539;-83
2022/05/20 08:20:55;;;;;;;0.80;0.70;;;;;;;;;;5092834;28;20450;-85
2022/05/20 08:23:22;;;;;;;1.03;0.93;;;;;;;;;;5075485;28;20478;-83
2022/05/20 08:25:49;;;;;;;0.80;0.80;;;;;;;;;;5092645;28;20436;-83
2022/05/20 08:28:17;;;;;;;0.80;0.70;;;;;;;;;;5092800;28;20486;-82
2022/05/20 08:30:44;;;;;;;0.77;0.70;;;;;;;;;;5093327;28;20403;-84
2022/05/20 08:33:12;;;;;;;1.00;1.00;;;;;;;;;;5094145;28;20400;-82
2022/05/20 08:35:39;;;;;;;0.90;0.90;;;;;;;;;;5075637;28;20413;-83
2022/05/20 08:38:06;;;;;;;1.67;1.00;;;;;;;;;;5085966;28;20414;-85
2022/05/20 08:40:36;;;;;;;2.03;1.93;;;;;;;;;;5072864;28;20419;-84
2022/05/20 08:43:03;;;;;;;1.10;1.00;;;;;;;;;;5057089;28;20435;-83
2022/05/20 08:45:31;;;;;;;1.37;1.27;;;;;;;;;;5072251;28;20474;-83
2022/05/20 08:47:58;;;;;;;0.80;0.80;;;;;;;;;;5073406;28;20462;-83
2022/05/20 08:50:31;;;;;;;0.90;0.80;;;;;;;;;;5092875;28;21010;-83
2022/05/20 08:52:58;;;;;;;2.37;2.20;;;;;;;;;;5096784;28;20442;-82
2022/05/20 08:55:25;;;;;;;2.37;1.10;;;;;;;;;;5077437;28;20434;-82
2022/05/20 08:57:55;;;;;;;1.10;0.90;;;;;;;;;;5097893;28;20450;-84
2022/05/20 09:00:22;;;;;;;0.90;0.80;;;;;;;;;;5096846;28;20856;-84
2022/05/20 09:02:49;;;;;;;0.70;0.60;;;;;;;;;;5098464;28;20425;-80
2022/05/20 09:05:18;;;;;;;0.80;0.80;;;;;;;;;;5097934;28;20490;-83
2022/05/20 09:08:00;;;;;;;1.57;1.47;;;;;;;;;;5080174;28;20458;-84
2022/05/20 09:10:28;;;;;;;5.27;0.93;;;;;;;;;;5079765;28;20557;-85
2022/05/20 09:13:07;;;;;;;6.90;1.20;;;;;;;;;;5079477;28;20445;-81
2022/05/20 09:15:44;;;;;;;1.10;1.00;;;;;;;;;;5079662;28;20434;-85
2022/05/20 09:18:16;;;;;;;1.40;1.30;;;;;;;;;;5097808;28;20469;-83
2022/05/20 09:20:45;;;;;;;0.80;0.80;;;;;;;;;;5095766;28;20458;-83
2022/05/20 09:23:20;;;;;;;0.87;0.80;;;;;;;;;;5095832;28;20477;-82
2022/05/20 09:25:55;;;;;;;0.80;0.70;;;;;;;;;;5095670;28;20491;-80
2022/05/20 09:28:27;;;;;;;0.90;0.80;;;;;;;;;;5095728;28;20430;-80
2022/05/20 09:31:02;;;;;;;1.07;0.87;;;;;;;;;;5096637;28;20883;-83
2022/05/20 09:33:30;;;;;;;1.53;1.40;;;;;;;;;;5079056;28;20433;-82
2022/05/20 09:35:58;;;;;;;1.20;1.13;;;;;;;;;;5096049;28;20962;-82
2022/05/20 09:38:34;;;;;;;0.90;0.80;;;;;;;;;;5096610;28;20432;-82
2022/05/20 09:41:09;;;;;;;1.87;0.80;;;;;;;;;;5079844;28;20474;-82
2022/05/20 09:43:37;;;;;;;1.23;1.10;;;;;;;;;;5096697;28;20406;-83
2022/05/20 09:46:05;;;;;;;1.50;1.20;;;;;;;;;;5079544;28;20466;-81
2022/05/20 09:48:34;;;;;;;2.23;2.13;;;;;;;;;;5095828;28;20450;-83
2022/05/20 09:51:07;;;;;;;5.10;1.30;;;;;;;;;;5079317;28;20462;-83
2022/05/20 09:53:36;;;;;;;1.00;0.80;;;;;;;;;;5095892;28;20462;-81
2022/05/20 09:56:30;;;;;;;0.70;0.60;;;;;;;;;;5079218;28;20794;-81
2022/05/20 09:58:58;;;;;;;1.13;1.03;;;;;;;;;;5077317;28;20960;-82
2022/05/20 10:01:26;;;;;;;4.37;1.27;;;;;;;;;;5078981;28;20854;-84
2022/05/20 10:03:57;;;;;;;0.77;0.67;;;;;;;;;;5079515;28;20481;-82
2022/05/20 10:06:27;;;;;;;2.00;0.90;;;;;;;;;;5094970;28;21098;-81
2022/05/20 10:08:59;;;;;;;1.00;0.90;;;;;;;;;;5095346;28;20960;-83
2022/05/20 10:11:28;;;;;;;0.70;0.50;;;;;;;;;;5095324;28;20442;-82
2022/05/20 10:13:58;;;;;;;0.80;0.80;;;;;;;;;;5096597;28;20532;-82
2022/05/20 10:16:28;;;;;;;1.77;1.30;;;;;;;;;;5079002;28;20433;-81
2022/05/20 10:18:59;;;;;;;1.20;0.80;;;;;;;;;;5074093;28;20450;-81
2022/05/20 10:21:37;;;;;;;2.20;0.80;;;;;;;;;;5078472;28;20474;-79
2022/05/20 10:24:10;;;;;;;0.80;0.67;;;;;;;;;;5095174;28;20434;-80
2022/05/20 10:26:42;;;;;;;1.33;0.70;;;;;;;;;;5090416;28;20523;-82
2022/05/20 10:34:50;;;;;;;1.43;1.33;;;;;;;;;;5090622;28;20791;-80
2022/05/20 10:37:22;;;;;;;0.80;0.73;;;;;;;;;;5086527;28;20474;-80
2022/05/20 10:40:09;;;;;;;0.70;0.50;;;;;;;;;;5092398;28;20489;-79
2022/05/20 10:42:54;;;;;;;1.00;0.90;;;;;;;;;;5080702;28;20469;-78
2022/05/20 10:48:34;;;;;;;1.10;0.97;;;;;;;;;;5093741;28;20457;-78
2022/05/20 10:51:10;;;;;;;1.13;1.03;;;;;;;;;;5080463;28;20467;-80
2022/05/20 10:53:43;;;;;;;4.83;0.90;;;;;;;;;;5076035;28;20868;-77
2022/05/20 10:56:18;;;;;;;0.90;0.70;;;;;;;;;;5092779;28;20433;-79
2022/05/20 10:59:04;;;;;;;0.80;0.70;;;;;;;;;;5076053;28;20480;-77
2022/05/20 11:01:37;;;;;;;3.43;1.67;;;;;;;;;;5077762;28;20442;-79
2022/05/20 11:04:14;;;;;;;1.07;0.60;;;;;;;;;;5077361;28;20430;-79
2022/05/20 11:06:54;;;;;;;1.00;0.90;;;;;;;;;;5079501;28;20540;-79
2022/05/20 11:09:25;;;;;;;0.90;0.80;;;;;;;;;;5078799;28;20422;-79
2022/05/20 11:11:56;;;;;;;0.80;0.80;;;;;;;;;;5097212;28;20450;-80
2022/05/20 11:14:33;;;;;;;4.40;1.13;;;;;;;;;;5096459;28;20434;-81
2022/05/20 11:17:11;;;;;;;0.90;0.70;;;;;;;;;;5077639;28;20927;-80
2022/05/20 11:19:48;;;;;;;1.10;0.77;;;;;;;;;;5065923;28;20447;-78
2022/05/20 11:22:39;;;;;;;1.00;0.80;;;;;;;;;;5073200;28;20459;-81
2022/05/20 11:25:20;;;;;;;1.30;1.20;;;;;;;;;;5088493;28;21000;-81
2022/05/20 11:28:02;;;;;;;0.80;0.77;;;;;;;;;;5094782;28;21003;-82
2022/05/20 11:30:34;;;;;;;1.17;1.07;;;;;;;;;;5095063;28;20411;-83
2022/05/20 11:33:19;;;;;;;0.83;0.83;;;;;;;;;;5095715;28;20784;-82
2022/05/20 11:36:04;;;;;;;0.90;0.80;;;;;;;;;;5077282;28;20423;-81
2022/05/20 11:38:52;;;;;;;1.03;0.97;;;;;;;;;;5057170;28;20546;-80
2022/05/20 11:41:23;;;;;;;0.70;0.60;;;;;;;;;;5073896;28;20469;-82
2022/05/20 11:44:00;;;;;;;1.37;1.27;;;;;;;;;;5074058;28;20770;-82
2022/05/20 11:46:33;;;;;;;0.70;0.60;;;;;;;;;;5073684;28;20506;-82
2022/05/20 11:49:12;;;;;;;1.47;1.07;;;;;;;;;;5083851;28;20465;-79
2022/05/20 11:51:49;;;;;;;1.87;1.30;;;;;;;;;;5083885;28;20462;-81
2022/05/20 11:54:19;;;;;;;1.10;1.00;;;;;;;;;;5072946;28;20447;-80
2022/05/20 11:56:49;;;;;;;1.27;1.17;;;;;;;;;;5073328;28;20504;-79
2022/05/20 11:59:18;;;;;;;1.00;0.70;;;;;;;;;;5073153;28;20508;-80
2022/05/20 12:01:47;;;;;;;1.20;1.10;;;;;;;;;;5057045;28;20443;-79
2022/05/20 12:04:17;;;;;;;0.80;0.67;;;;;;;;;;5072637;28;20453;-80
2022/05/20 12:06:47;;;;;;;0.70;0.60;;;;;;;;;;5072535;28;20811;-80
2022/05/20 12:09:32;;;;;;;1.57;1.10;;;;;;;;;;5072519;28;20435;-79
2022/05/20 12:12:24;;;;;;;0.70;0.60;;;;;;;;;;5072526;28;20465;-81
2022/05/20 12:14:57;;;;;;;0.70;0.60;;;;;;;;;;5068885;28;20500;-81
2022/05/20 12:17:28;;;;;;;0.70;0.70;;;;;;;;;;5073140;28;20408;-80
2022/05/20 12:25:45;;;;;;;1.03;0.80;;;;;;;;;;5074029;28;20512;-81
2022/05/20 12:28:28;;;;;;;0.80;0.80;;;;;;;;;;5084849;28;20434;-76
2022/05/20 12:31:03;;;;;;;1.40;0.97;;;;;;;;;;5055798;28;20447;-81
2022/05/20 12:33:45;;;;;;;0.80;0.70;;;;;;;;;;5072757;28;20415;-83
2022/05/20 12:36:21;;;;;;;0.93;0.87;;;;;;;;;;5079823;28;20465;-80
2022/05/20 12:38:50;;;;;;;1.00;0.90;;;;;;;;;;5075683;28;20454;-76
2022/05/20 12:41:20;;;;;;;2.03;1.10;;;;;;;;;;5092423;28;20995;-78
2022/05/20 12:43:56;;;;;;;2.73;1.33;;;;;;;;;;5095457;28;20815;-77
2022/05/20 12:46:55;;;;;;;0.80;0.67;;;;;;;;;;5086751;28;20512;-73
2022/05/20 12:49:23;;;;;;;0.80;0.70;;;;;;;;;;5086126;28;20461;-74
2022/05/20 12:51:52;;;;;;;0.83;0.80;;;;;;;;;;5081541;28;20516;-74
2022/05/20 12:54:21;;;;;;;0.97;0.90;;;;;;;;;;5084136;28;20828;-74
2022/05/20 12:56:52;;;;;;;0.80;0.73;;;;;;;;;;5092348;28;20746;-73
2022/05/20 12:59:20;;;;;;;1.07;0.97;;;;;;;;;;5092607;28;20869;-74
2022/05/20 13:01:51;;;;;;;0.70;0.60;;;;;;;;;;5092782;28;20484;-74
2022/05/20 13:04:19;;;;;;;0.80;0.70;;;;;;;;;;5093386;28;20415;-74
2022/05/20 13:06:47;;;;;;;0.80;0.80;;;;;;;;;;5092636;28;20448;-77
2022/05/20 13:09:21;;;;;;;1.00;0.90;;;;;;;;;;5088408;28;20438;-76
2022/05/20 13:11:53;;;;;;;0.70;0.70;;;;;;;;;;5074999;28;20415;-74
2022/05/20 13:14:32;;;;;;;1.30;1.20;;;;;;;;;;5076277;28;20415;-74
2022/05/20 13:17:02;;;;;;;0.70;0.70;;;;;;;;;;5073902;28;20405;-78
2022/05/20 13:19:32;;;;;;;0.80;0.70;;;;;;;;;;5087049;28;20420;-74
2022/05/20 13:22:02;;;;;;;1.10;1.00;;;;;;;;;;5097537;28;20440;-76
2022/05/20 13:24:34;;;;;;;0.70;0.60;;;;;;;;;;5073259;28;20434;-75
2022/05/20 13:27:09;;;;;;;0.80;0.80;;;;;;;;;;5082681;28;20461;-75
2022/05/20 13:29:36;;;;;;;0.93;0.83;;;;;;;;;;5096290;28;20467;-75
2022/05/20 13:32:13;;;;;;;0.70;0.60;;;;;;;;;;5096511;28;20521;-76
2022/05/20 13:34:40;;;;;;;1.30;1.20;;;;;;;;;;5091703;28;20459;-75
2022/05/20 13:37:07;;;;;;;0.80;0.80;;;;;;;;;;5074925;28;21089;-75
2022/05/20 13:39:35;;;;;;;1.17;1.07;;;;;;;;;;5084945;28;20459;-78
2022/05/20 13:42:06;;;;;;;0.80;0.70;;;;;;;;;;5094559;28;20411;-76
2022/05/20 13:44:33;;;;;;;0.70;0.60;;;;;;;;;;5095158;28;20430;-76
2022/05/20 13:49:49;;;;;;;0.90;0.90;;;;;;;;;;5079508;28;20413;-72
2022/05/20 13:52:17;;;;;;;0.80;0.70;;;;;;;;;;5076211;28;20466;-75
2022/05/20 13:54:53;;;;;;;1.80;0.93;;;;;;;;;;5079874;28;20830;-76
2022/05/20 13:57:22;;;;;;;0.70;0.70;;;;;;;;;;5074542;28;20441;-75
2022/05/20 13:59:52;;;;;;;1.27;1.13;;;;;;;;;;5077038;28;20412;-76
2022/05/20 14:02:33;;;;;;;0.80;0.70;;;;;;;;;;5063784;28;20917;-76
2022/05/20 14:04:59;;;;;;;0.70;0.60;;;;;;;;;;5093561;28;20902;-76
2022/05/20 14:07:30;;;;;;;0.80;0.80;;;;;;;;;;5076067;28;20463;-76
2022/05/20 14:10:00;;;;;;;0.77;0.70;;;;;;;;;;5085203;28;20410;-76
2022/05/20 14:12:29;;;;;;;1.23;0.93;;;;;;;;;;5074873;28;20463;-76
2022/05/20 14:14:58;;;;;;;1.27;0.80;;;;;;;;;;5076310;28;20516;-75
2022/05/20 14:17:26;;;;;;;0.80;0.70;;;;;;;;;;5076076;28;20439;-76
2022/05/20 14:19:53;;;;;;;0.70;0.60;;;;;;;;;;5095264;28;20917;-75
2022/05/20 14:22:24;;;;;;;0.70;0.70;;;;;;;;;;5099171;28;20445;-75
2022/05/20 14:24:54;;;;;;;1.40;1.30;;;;;;;;;;5094604;28;20439;-76
2022/05/20 14:27:30;;;;;;;0.80;0.80;;;;;;;;;;5079419;28;20425;-75
2022/05/20 14:30:28;;;;;;;1.10;0.80;;;;;;;;;;5081857;28;20923;-75
2022/05/20 14:32:57;;;;;;;0.80;0.70;;;;;;;;;;4998038;28;20500;-76
2022/05/20 14:35:25;;;;;;;1.00;0.77;;;;;;;;;;5041532;28;20443;-76
2022/05/20 14:37:53;;;;;;;0.80;0.70;;;;;;;;;;5076402;28;20542;-76
2022/05/20 14:40:26;;;;;;;0.80;0.73;;;;;;;;;;5074014;28;20443;-75
2022/05/20 14:42:55;;;;;;;0.80;0.80;;;;;;;;;;5075326;28;20467;-76
2022/05/20 14:45:30;;;;;;;2.10;1.60;;;;;;;;;;5081560;28;20484;-76
2022/05/20 14:47:59;;;;;;;0.70;0.60;;;;;;;;;;5091144;28;20828;-76
2022/05/20 14:50:27;;;;;;;0.73;0.67;;;;;;;;;;5074393;28;20477;-73
2022/05/20 14:53:02;;;;;;;0.77;0.70;;;;;;;;;;5057592;28;20422;-74
2022/05/20 14:55:31;;;;;;;1.03;0.93;;;;;;;;;;5087282;28;20516;-73
2022/05/20 14:58:02;;;;;;;2.30;1.00;;;;;;;;;;5073482;28;20431;-74
2022/05/20 15:00:30;;;;;;;0.80;0.77;;;;;;;;;;5074848;28;20417;-75
2022/05/20 15:02:58;;;;;;;1.17;0.80;;;;;;;;;;5074739;28;20716;-76
2022/05/20 15:05:26;;;;;;;0.83;0.83;;;;;;;;;;5075165;28;20564;-78
2022/05/20 15:07:56;;;;;;;0.73;0.70;;;;;;;;;;5079004;28;20464;-79
2022/05/20 15:10:23;;;;;;;0.80;0.80;;;;;;;;;;5096057;28;20453;-76
2022/05/20 15:12:50;;;;;;;0.77;0.70;;;;;;;;;;5095918;28;20439;-76
2022/05/20 15:15:19;;;;;;;0.70;0.60;;;;;;;;;;5092579;28;20442;-76
2022/05/20 15:18:01;;;;;;;1.00;0.90;;;;;;;;;;5077255;28;20537;-76
2022/05/20 15:20:29;;;;;;;0.80;0.80;;;;;;;;;;5074955;28;20419;-76
2022/05/20 15:22:58;;;;;;;0.90;0.90;;;;;;;;;;5075620;28;20487;-76
2022/05/20 15:25:25;;;;;;;0.80;0.77;;;;;;;;;;5078069;28;20443;-76
2022/05/20 15:27:52;;;;;;;0.73;0.70;;;;;;;;;;5079084;28;20463;-77
2022/05/20 15:30:23;;;;;;;0.93;0.93;;;;;;;;;;5063175;28;20819;-78
2022/05/20 15:35:41;;;;;;;0.70;0.70;;;;;;;;;;5088205;28;20435;-76
2022/05/20 15:38:10;;;;;;;0.70;0.70;;;;;;;;;;5091079;28;20465;-77
2022/05/20 15:40:39;;;;;;;0.80;0.80;;;;;;;;;;5086054;28;20513;-77